createdAt,value
2019-02-27T00:02:30.495Z,94422.02
2019-02-27T00:05:05.947Z,94430.80
2019-02-27T00:07:40.311Z,94438.36
2019-02-27T00:10:13.951Z,94435.55
2019-02-27T00:12:51.761Z,94440.27
2019-02-27T00:15:23.111Z,94442.50
2019-02-27T00:17:56.862Z,94447.93
2019-02-27T00:20:30.640Z,94456.09
2019-02-27T00:23:05.202Z,94450.39
2019-02-27T00:25:39.139Z,94449.72
2019-02-27T00:28:13.020Z,94459.95
2019-02-27T00:30:46.791Z,94452.69
2019-02-27T00:33:25.053Z,94452.08
2019-02-27T00:35:55.681Z,94462.30
2019-02-27T00:38:29.220Z,94455.66
2019-02-27T00:41:03.194Z,94451.84
2019-02-27T00:43:37.139Z,94457.36
2019-02-27T00:46:13.076Z,94443.20
2019-02-27T00:48:46.020Z,94446.74
2019-02-27T00:51:20.090Z,94444.39
2019-02-27T00:53:55.944Z,94442.45
2019-02-27T00:56:29.249Z,94445.75
2019-02-27T00:59:03.069Z,94436.94
2019-02-27T01:01:36.871Z,94425.25
2019-02-27T01:04:10.741Z,94435.33
2019-02-27T01:06:45.022Z,94435.05
2019-02-27T01:09:20.051Z,94433.36
2019-02-27T01:11:53.872Z,94430.20
2019-02-27T01:14:27.451Z,94428.97
2019-02-27T01:17:01.293Z,94426.33
2019-02-27T01:19:38.300Z,94423.82
2019-02-27T01:22:10.294Z,94423.73
2019-02-27T01:24:44.001Z,94424.43
2019-02-27T01:27:17.949Z,94421.37
2019-02-27T01:29:51.801Z,94419.95
2019-02-27T01:32:25.540Z,94427.53
2019-02-27T01:34:59.280Z,94423.59
2019-02-27T01:37:32.949Z,94418.03
2019-02-27T01:40:06.375Z,94421.20
2019-02-27T01:42:40.279Z,94419.44
2019-02-27T01:45:13.899Z,94420.86
2019-02-27T01:47:47.731Z,94408.02
2019-02-27T01:50:22.701Z,94406.07
2019-02-27T01:52:56.691Z,94400.80
2019-02-27T01:55:30.619Z,94396.19
2019-02-27T01:58:09.227Z,94393.50
2019-02-27T02:00:40.471Z,94385.02
2019-02-27T02:03:14.347Z,94383.46
2019-02-27T02:05:48.182Z,94383.44
2019-02-27T02:08:21.946Z,94378.00
2019-02-27T02:10:55.691Z,94377.14
2019-02-27T02:13:29.451Z,94377.95
2019-02-27T02:16:03.452Z,94378.98
2019-02-27T02:18:37.471Z,94384.89
2019-02-27T02:21:11.111Z,94384.37
2019-02-27T02:23:47.682Z,94379.32
2019-02-27T02:26:20.351Z,94374.66
2019-02-27T02:28:54.451Z,94383.06
2019-02-27T02:31:28.132Z,94378.05
2019-02-27T02:34:05.138Z,94370.03
2019-02-27T02:36:37.430Z,94368.34
2019-02-27T02:39:11.332Z,94364.91
2019-02-27T02:41:48.023Z,94369.39
2019-02-27T02:44:21.201Z,94360.22
2019-02-27T02:46:56.084Z,94357.77
2019-02-27T02:49:29.998Z,94355.94
2019-02-27T02:52:05.624Z,94347.39
2019-02-27T02:54:38.884Z,94351.69
2019-02-27T02:57:12.791Z,94361.20
2019-02-27T02:59:46.601Z,94351.28
2019-02-27T03:02:23.463Z,94355.36
2019-02-27T03:04:55.671Z,94355.56
2019-02-27T03:07:29.422Z,94349.05
2019-02-27T03:10:07.100Z,94352.27
2019-02-27T03:12:38.691Z,94353.12
2019-02-27T03:15:12.335Z,94355.27
2019-02-27T03:17:46.170Z,94350.03
2019-02-27T03:20:20.172Z,94343.78
2019-02-27T03:22:53.901Z,94354.48
2019-02-27T03:25:27.751Z,94348.31
2019-02-27T03:28:04.994Z,94343.63
2019-02-27T03:30:37.335Z,94348.17
2019-02-27T03:33:11.172Z,94345.01
2019-02-27T03:35:44.852Z,94341.55
2019-02-27T03:38:23.821Z,94342.50
2019-02-27T03:40:54.020Z,94344.17
2019-02-27T03:43:27.659Z,94336.68
2019-02-27T03:46:03.144Z,94340.59
2019-02-27T03:48:37.230Z,94338.58
2019-02-27T03:51:10.939Z,94345.19
2019-02-27T03:53:46.389Z,94334.70
2019-02-27T03:56:19.991Z,94340.51
2019-02-27T03:58:53.805Z,94339.67
2019-02-27T04:01:30.663Z,94334.25
2019-02-27T04:04:03.287Z,94346.08
2019-02-27T04:06:36.861Z,94341.46
2019-02-27T04:09:10.812Z,94334.34
2019-02-27T04:11:44.731Z,94334.48
2019-02-27T04:14:18.408Z,94330.91
2019-02-27T04:16:52.251Z,94329.06
2019-02-27T04:19:26.020Z,94335.15
2019-02-27T04:22:01.049Z,94329.34
2019-02-27T04:24:35.091Z,94336.27
2019-02-27T04:27:08.932Z,94338.89
2019-02-27T04:29:42.780Z,94344.10
2019-02-27T04:32:16.334Z,94344.03
2019-02-27T04:34:50.030Z,94343.53
2019-02-27T04:37:23.673Z,94340.61
2019-02-27T04:39:57.451Z,94339.36
2019-02-27T04:42:31.410Z,94342.20
2019-02-27T04:45:05.739Z,94331.35
2019-02-27T04:47:39.499Z,94336.89
2019-02-27T04:50:13.332Z,94336.61
2019-02-27T04:52:47.020Z,94337.93
2019-02-27T04:55:20.891Z,94343.75
2019-02-27T04:57:54.710Z,94338.23
2019-02-27T05:00:28.421Z,94355.98
2019-02-27T05:03:02.371Z,94353.36
2019-02-27T05:05:36.122Z,94352.95
2019-02-27T05:08:09.770Z,94357.83
2019-02-27T05:10:43.579Z,94355.88
2019-02-27T05:13:20.464Z,94356.19
2019-02-27T05:15:52.805Z,94356.91
2019-02-27T05:18:29.296Z,94351.74
2019-02-27T05:21:02.439Z,94351.16
2019-02-27T05:23:35.983Z,94350.98
2019-02-27T05:26:09.668Z,94355.92
2019-02-27T05:28:43.331Z,94360.33
2019-02-27T05:31:19.027Z,94355.38
2019-02-27T05:33:52.234Z,94362.41
2019-02-27T05:36:26.248Z,94368.39
2019-02-27T05:39:00.011Z,94374.14
2019-02-27T05:41:33.797Z,94380.52
2019-02-27T05:44:35.680Z,94379.42
2019-02-27T05:46:46.650Z,94376.63
2019-02-27T05:49:20.322Z,94376.91
2019-02-27T05:51:54.281Z,94384.70
2019-02-27T05:54:29.979Z,94384.27
2019-02-27T05:57:03.661Z,94384.84
2019-02-27T05:59:37.510Z,94384.14
2019-02-27T06:02:11.522Z,94377.84
2019-02-27T06:04:45.400Z,94383.53
2019-02-27T06:07:19.576Z,94397.33
2019-02-27T06:09:53.887Z,94384.73
2019-02-27T06:12:27.670Z,94390.32
2019-02-27T06:15:01.291Z,94394.13
2019-02-27T06:17:43.117Z,94396.31
2019-02-27T06:20:10.339Z,94401.69
2019-02-27T06:22:44.191Z,94391.25
2019-02-27T06:25:21.827Z,94398.04
2019-02-27T06:27:53.471Z,94400.42
2019-02-27T06:30:30.333Z,94405.04
2019-02-27T06:33:03.229Z,94408.80
2019-02-27T06:35:37.232Z,94401.01
2019-02-27T06:38:10.810Z,94401.11
2019-02-27T06:40:44.534Z,94402.33
2019-02-27T06:43:18.480Z,94405.33
2019-02-27T06:45:54.145Z,94404.16
2019-02-27T06:48:27.610Z,94408.31
2019-02-27T06:51:01.654Z,94415.34
2019-02-27T06:53:35.619Z,94410.68
2019-02-27T06:56:09.151Z,94399.14
2019-02-27T06:58:42.750Z,94406.05
2019-02-27T07:01:16.319Z,94405.02
2019-02-27T07:03:50.079Z,94401.81
2019-02-27T07:06:23.710Z,94402.04
2019-02-27T07:08:58.060Z,94407.50
2019-02-27T07:11:31.899Z,94413.82
2019-02-27T07:14:05.649Z,94403.54
2019-02-27T07:16:39.711Z,94407.50
2019-02-27T07:19:15.763Z,94414.51
2019-02-27T07:21:48.570Z,94406.51
2019-02-27T07:24:22.151Z,94408.17
2019-02-27T07:26:55.870Z,94404.69
2019-02-27T07:29:29.609Z,94406.04
2019-02-27T07:32:03.816Z,94401.85
2019-02-27T07:34:37.851Z,94404.56
2019-02-27T07:37:12.963Z,94393.45
2019-02-27T07:39:47.319Z,94401.81
2019-02-27T07:42:21.049Z,94408.47
2019-02-27T07:44:54.850Z,94407.08
2019-02-27T07:47:28.799Z,94395.11
2019-02-27T07:50:05.516Z,94395.39
2019-02-27T07:52:38.199Z,94396.72
2019-02-27T07:55:21.085Z,94398.60
2019-02-27T07:57:47.109Z,94402.05
2019-02-27T08:00:20.834Z,94390.08
2019-02-27T08:02:54.637Z,94386.30
2019-02-27T08:05:29.192Z,94380.49
2019-02-27T08:08:03.452Z,94372.88
2019-02-27T08:10:37.590Z,94376.88
2019-02-27T08:13:11.274Z,94379.11
2019-02-27T08:15:45.491Z,94379.08
2019-02-27T08:18:29.353Z,94377.67
2019-02-27T08:20:55.263Z,94377.15
2019-02-27T08:23:29.241Z,94379.98
2019-02-27T08:26:05.096Z,94384.36
2019-02-27T08:28:38.660Z,94377.72
2019-02-27T08:31:12.219Z,94376.67
2019-02-27T08:33:45.869Z,94376.11
2019-02-27T08:36:19.870Z,94374.78
2019-02-27T08:38:53.751Z,94375.42
2019-02-27T08:41:29.151Z,94378.64
2019-02-27T08:44:03.720Z,94370.15
2019-02-27T08:46:37.729Z,94383.06
2019-02-27T08:49:11.658Z,94379.17
2019-02-27T08:51:45.572Z,94380.26
2019-02-27T08:54:19.332Z,94383.21
2019-02-27T08:56:53.090Z,94382.14
2019-02-27T08:59:26.852Z,94395.16
2019-02-27T09:02:00.630Z,94379.22
2019-02-27T09:04:34.379Z,94375.22
2019-02-27T09:07:07.756Z,94375.19
2019-02-27T09:09:41.451Z,94381.27
2019-02-27T09:12:15.409Z,94385.07
2019-02-27T09:14:49.491Z,94374.05
2019-02-27T09:17:26.827Z,94383.69
2019-02-27T09:19:58.811Z,94379.02
2019-02-27T09:22:33.866Z,94388.03
2019-02-27T09:25:07.710Z,94380.48
2019-02-27T09:27:41.571Z,94382.24
2019-02-27T09:30:15.210Z,94375.48
2019-02-27T09:32:49.200Z,94385.53
2019-02-27T09:35:22.830Z,94379.84
2019-02-27T09:37:56.552Z,94390.75
2019-02-27T09:40:30.344Z,94388.02
2019-02-27T09:43:06.270Z,94386.37
2019-02-27T09:45:40.008Z,94383.06
2019-02-27T09:48:13.691Z,94389.49
2019-02-27T09:50:48.240Z,94387.20
2019-02-27T09:56:32.752Z,94388.19
2019-02-27T09:59:08.520Z,94386.90
2019-02-27T10:01:42.450Z,94372.19
2019-02-27T10:04:16.510Z,94377.09
2019-02-27T10:06:50.672Z,94372.61
2019-02-27T10:09:24.370Z,94376.94
2019-02-27T10:11:58.052Z,94373.11
2019-02-27T10:14:31.838Z,94373.91
2019-02-27T10:17:06.823Z,94374.89
2019-02-27T10:19:41.552Z,94365.05
2019-02-27T10:22:17.691Z,94362.48
2019-02-27T10:24:50.849Z,94353.81
2019-02-27T10:27:25.491Z,94363.22
2019-02-27T10:29:59.990Z,94355.13
2019-02-27T10:32:36.411Z,94351.84
2019-02-27T10:35:09.951Z,94350.31
2019-02-27T10:37:44.207Z,94353.48
2019-02-27T10:40:17.965Z,94347.03
2019-02-27T10:42:52.671Z,94343.57
2019-02-27T10:45:27.251Z,94343.58
2019-02-27T10:48:00.914Z,94335.70
2019-02-27T10:50:36.117Z,94332.11
2019-02-27T10:53:10.119Z,94341.84
2019-02-27T10:55:46.414Z,94329.72
2019-02-27T10:58:19.118Z,94332.59
2019-02-27T11:00:52.690Z,94328.24
2019-02-27T11:03:27.434Z,94324.16
2019-02-27T11:06:01.433Z,94320.27
2019-02-27T11:08:35.210Z,94324.97
2019-02-27T11:11:09.074Z,94320.17
2019-02-27T11:13:43.578Z,94330.91
2019-02-27T11:16:20.800Z,94308.17
2019-02-27T11:18:53.370Z,94321.42
2019-02-27T11:21:28.111Z,94317.77
2019-02-27T11:24:01.668Z,94319.89
2019-02-27T11:26:35.272Z,94313.75
2019-02-27T11:29:09.632Z,94311.95
2019-02-27T11:31:45.590Z,94303.88
2019-02-27T11:34:18.853Z,94308.23
2019-02-27T11:36:53.231Z,94316.70
2019-02-27T11:39:26.878Z,94310.34
2019-02-27T11:42:00.650Z,94311.12
2019-02-27T11:44:34.473Z,94307.92
2019-02-27T11:47:10.955Z,94300.21
2019-02-27T11:49:43.892Z,94301.78
2019-02-27T11:52:17.919Z,94300.77
2019-02-27T11:54:51.951Z,94297.28
2019-02-27T11:57:27.279Z,94294.36
2019-02-27T12:00:01.879Z,94295.95
2019-02-27T12:02:37.859Z,94291.72
2019-02-27T12:05:10.837Z,94293.27
2019-02-27T12:07:44.524Z,94297.84
2019-02-27T12:10:18.122Z,94284.25
2019-02-27T12:12:51.663Z,94285.06
2019-02-27T12:15:27.230Z,94278.66
2019-02-27T12:18:01.666Z,94274.12
2019-02-27T12:20:35.743Z,94275.20
2019-02-27T12:23:10.092Z,94262.42
2019-02-27T12:25:44.806Z,94254.97
2019-02-27T12:28:19.566Z,94256.04
2019-02-27T12:30:53.463Z,94267.48
2019-02-27T12:33:29.377Z,94252.69
2019-02-27T12:36:02.386Z,94255.98
2019-02-27T12:38:36.083Z,94258.44
2019-02-27T12:41:09.803Z,94254.94
2019-02-27T12:43:43.325Z,94252.75
2019-02-27T12:46:16.962Z,94253.24
2019-02-27T12:48:50.603Z,94258.01
2019-02-27T12:51:24.283Z,94253.91
2019-02-27T12:53:58.243Z,94256.56
2019-02-27T12:56:31.904Z,94247.25
2019-02-27T12:59:05.583Z,94253.31
2019-02-27T13:01:39.562Z,94255.80
2019-02-27T13:04:15.959Z,94233.47
2019-02-27T13:06:48.990Z,94242.84
2019-02-27T13:09:24.587Z,94235.28
2019-02-27T13:11:57.921Z,94246.98
2019-02-27T13:14:33.345Z,94242.97
2019-02-27T13:17:07.589Z,94238.92
2019-02-27T13:19:41.842Z,94243.66
2019-02-27T13:22:16.044Z,94233.76
2019-02-27T13:24:50.323Z,94235.45
2019-02-27T13:27:25.233Z,94238.87
2019-02-27T13:30:08.357Z,94241.22
2019-02-27T13:32:34.446Z,94242.44
2019-02-27T13:35:07.979Z,94239.01
2019-02-27T13:37:44.663Z,94235.52
2019-02-27T13:40:17.628Z,94236.56
2019-02-27T13:42:53.498Z,94230.98
2019-02-27T13:45:27.119Z,94238.66
2019-02-27T13:48:04.821Z,94240.52
2019-02-27T13:50:36.000Z,94231.37
2019-02-27T13:53:09.922Z,94232.44
2019-02-27T13:55:45.281Z,94224.73
2019-02-27T13:58:19.240Z,94224.22
2019-02-27T14:00:53.689Z,94228.99
2019-02-27T14:03:28.101Z,94234.62
2019-02-27T14:06:02.080Z,94236.74
2019-02-27T14:08:35.866Z,94233.06
2019-02-27T14:11:09.780Z,94227.66
2019-02-27T14:13:44.835Z,94217.67
2019-02-27T14:16:18.981Z,94225.45
2019-02-27T14:18:54.095Z,94225.68
2019-02-27T14:21:28.300Z,94213.38
2019-02-27T14:24:01.876Z,94218.63
2019-02-27T14:26:38.335Z,94219.11
2019-02-27T14:29:11.302Z,94211.82
2019-02-27T14:31:45.203Z,94203.08
2019-02-27T14:34:19.001Z,94207.34
2019-02-27T14:36:52.613Z,94201.73
2019-02-27T14:39:26.966Z,94204.41
2019-02-27T14:42:01.764Z,94200.95
2019-02-27T14:44:35.521Z,94201.22
2019-02-27T14:47:09.481Z,94205.48
2019-02-27T14:49:42.941Z,94207.58
2019-02-27T14:52:16.641Z,94205.97
2019-02-27T14:54:50.210Z,94197.71
2019-02-27T14:57:23.881Z,94206.82
2019-02-27T14:59:57.441Z,94206.52
2019-02-27T15:02:31.140Z,94204.91
2019-02-27T15:05:08.326Z,94197.69
2019-02-27T15:07:40.800Z,94194.48
2019-02-27T15:10:14.560Z,94192.89
2019-02-27T15:12:53.938Z,94201.15
2019-02-27T15:15:24.230Z,94194.77
2019-02-27T15:17:58.201Z,94193.16
2019-02-27T15:20:31.901Z,94192.64
2019-02-27T15:23:05.442Z,94184.73
2019-02-27T15:25:43.104Z,94191.91
2019-02-27T15:28:15.082Z,94192.95
2019-02-27T15:30:48.741Z,94192.17
2019-02-27T15:33:22.401Z,94188.98
2019-02-27T15:35:56.484Z,94182.06
2019-02-27T15:38:30.802Z,94187.61
2019-02-27T15:41:05.608Z,94183.12
2019-02-27T15:43:39.502Z,94185.61
2019-02-27T15:46:13.061Z,94186.18
2019-02-27T15:48:46.901Z,94183.59
2019-02-27T15:51:20.360Z,94182.59
2019-02-27T15:53:54.023Z,94180.48
2019-02-27T15:56:27.841Z,94175.31
2019-02-27T15:59:05.076Z,94174.31
2019-02-27T16:01:36.988Z,94175.11
2019-02-27T16:04:11.141Z,94171.99
2019-02-27T16:06:45.041Z,94169.97
2019-02-27T16:09:18.683Z,94172.13
2019-02-27T16:11:52.688Z,94172.41
2019-02-27T16:14:26.341Z,94174.80
2019-02-27T16:16:59.921Z,94169.13
2019-02-27T16:19:33.980Z,94171.41
2019-02-27T16:22:08.081Z,94163.19
2019-02-27T16:24:43.815Z,94166.35
2019-02-27T16:27:16.810Z,94172.64
2019-02-27T16:29:50.326Z,94171.52
2019-02-27T16:32:24.002Z,94174.92
2019-02-27T16:34:59.871Z,94182.46
2019-02-27T16:37:33.326Z,94180.46
2019-02-27T16:40:07.084Z,94174.69
2019-02-27T16:42:40.603Z,94167.16
2019-02-27T16:45:13.983Z,94170.56
2019-02-27T16:47:47.826Z,94176.11
2019-02-27T16:50:24.807Z,94176.28
2019-02-27T16:52:56.648Z,94175.86
2019-02-27T16:55:30.220Z,94165.25
2019-02-27T16:58:03.840Z,94169.39
2019-02-27T17:00:37.502Z,94164.88
2019-02-27T17:03:13.446Z,94168.91
2019-02-27T17:05:46.721Z,94168.05
2019-02-27T17:08:20.286Z,94162.09
2019-02-27T17:10:54.244Z,94172.29
2019-02-27T17:13:27.920Z,94169.23
2019-02-27T17:16:02.214Z,94172.55
2019-02-27T17:18:35.681Z,94169.22
2019-02-27T17:21:09.483Z,94171.72
2019-02-27T17:23:46.540Z,94166.10
2019-02-27T17:26:18.565Z,94164.75
2019-02-27T17:28:52.689Z,94163.81
2019-02-27T17:31:28.021Z,94164.01
2019-02-27T17:34:01.516Z,94173.22
2019-02-27T17:36:34.998Z,94165.53
2019-02-27T17:39:08.687Z,94173.51
2019-02-27T17:41:44.652Z,94171.14
2019-02-27T17:44:18.105Z,94170.37
2019-02-27T17:46:51.698Z,94163.89
2019-02-27T17:49:27.143Z,94163.22
2019-02-27T17:52:00.924Z,94161.98
2019-02-27T17:54:35.022Z,94159.98
2019-02-27T17:57:08.502Z,94159.83
2019-02-27T17:59:43.049Z,94156.33
2019-02-27T18:02:17.032Z,94159.62
2019-02-27T18:04:53.593Z,94156.34
2019-02-27T18:07:34.103Z,94160.29
2019-02-27T18:10:02.238Z,94158.91
2019-02-27T18:12:36.070Z,94158.08
2019-02-27T18:15:09.754Z,94160.54
2019-02-27T18:17:43.220Z,94157.77
2019-02-27T18:20:17.140Z,94159.86
2019-02-27T18:22:50.781Z,94158.66
2019-02-27T18:25:24.300Z,94149.29
2019-02-27T18:27:59.556Z,94145.55
2019-02-27T18:30:33.360Z,94140.44
2019-02-27T18:33:06.940Z,94142.46
2019-02-27T18:35:40.871Z,94137.39
2019-02-27T18:38:14.401Z,94134.56
2019-02-27T18:40:48.841Z,94132.75
2019-02-27T18:43:22.430Z,94133.02
2019-02-27T18:45:56.301Z,94131.97
2019-02-27T18:48:30.120Z,94121.97
2019-02-27T18:51:03.644Z,94118.50
2019-02-27T18:53:37.593Z,94116.83
2019-02-27T18:56:11.159Z,94114.41
2019-02-27T18:58:46.240Z,94116.45
2019-02-27T19:01:21.279Z,94118.52
2019-02-27T19:04:00.296Z,94121.30
2019-02-27T19:06:30.120Z,94113.82
2019-02-27T19:09:04.541Z,94115.70
2019-02-27T19:11:38.248Z,94112.41
2019-02-27T19:14:11.881Z,94116.00
2019-02-27T19:16:47.940Z,94111.80
2019-02-27T19:19:21.639Z,94107.94
2019-02-27T19:21:55.241Z,94109.70
2019-02-27T19:24:29.015Z,94118.47
2019-02-27T19:27:02.475Z,94118.55
2019-02-27T19:29:36.022Z,94118.20
2019-02-27T19:32:09.824Z,94121.53
2019-02-27T19:34:44.444Z,94123.78
2019-02-27T19:37:18.921Z,94128.38
2019-02-27T19:39:53.384Z,94122.19
2019-02-27T19:42:28.561Z,94118.27
2019-02-27T19:45:04.397Z,94108.08
2019-02-27T19:47:37.823Z,94110.23
2019-02-27T19:50:13.120Z,94095.25
2019-02-27T19:52:46.619Z,94104.80
2019-02-27T19:55:23.752Z,94097.16
2019-02-27T19:57:55.500Z,94088.67
2019-02-27T20:00:33.783Z,94081.39
2019-02-27T20:03:04.300Z,94085.25
2019-02-27T20:05:37.901Z,94091.64
2019-02-27T20:08:11.583Z,94094.84
2019-02-27T20:10:45.032Z,94092.58
2019-02-27T20:13:18.740Z,94086.87
2019-02-27T20:15:53.760Z,94081.49
2019-02-27T20:18:27.621Z,94080.85
2019-02-27T20:21:01.459Z,94071.06
2019-02-27T20:23:35.020Z,94068.10
2019-02-27T20:26:13.979Z,94072.47
2019-02-27T20:28:43.882Z,94068.91
2019-02-27T20:31:20.182Z,94062.11
2019-02-27T20:33:52.720Z,94054.95
2019-02-27T20:36:29.846Z,94056.70
2019-02-27T20:39:03.264Z,94047.87
2019-02-27T20:41:39.626Z,94044.38
2019-02-27T20:44:12.201Z,94029.77
2019-02-27T20:46:46.341Z,94028.64
2019-02-27T20:49:21.600Z,94033.42
2019-02-27T20:51:55.122Z,94026.88
2019-02-27T20:54:28.840Z,94023.56
2019-02-27T20:57:02.516Z,94024.47
2019-02-27T20:59:35.945Z,94025.16
2019-02-27T21:02:09.580Z,94032.03
2019-02-27T21:04:43.162Z,94025.00
2019-02-27T21:07:22.322Z,94024.89
2019-02-27T21:09:52.440Z,94021.47
2019-02-27T21:12:26.177Z,94020.37
2019-02-27T21:15:00.256Z,94019.33
2019-02-27T21:17:33.941Z,94021.84
2019-02-27T21:20:11.290Z,94010.34
2019-02-27T21:22:43.181Z,94004.63
2019-02-27T21:25:16.780Z,93997.48
2019-02-27T21:27:50.803Z,93997.83
2019-02-27T21:30:24.541Z,93995.41
2019-02-27T21:32:58.067Z,93993.88
2019-02-27T21:35:31.957Z,93998.48
2019-02-27T21:38:05.605Z,93986.90
2019-02-27T21:40:39.087Z,93984.84
2019-02-27T21:43:13.082Z,93987.09
2019-02-27T21:45:46.983Z,93985.02
2019-02-27T21:48:23.487Z,93990.71
2019-02-27T21:50:55.361Z,93980.22
2019-02-27T21:53:29.614Z,93974.91
2019-02-27T21:56:03.403Z,93974.68
2019-02-27T21:58:36.498Z,93977.30
2019-02-27T22:01:09.483Z,93967.47
2019-02-27T22:03:42.542Z,93959.99
2019-02-27T22:06:16.270Z,93957.95
2019-02-27T22:08:49.802Z,93951.14
2019-02-27T22:11:26.690Z,93945.73
2019-02-27T22:13:58.764Z,93949.16
2019-02-27T22:16:32.621Z,93944.80
2019-02-27T22:19:06.281Z,93944.30
2019-02-27T22:21:40.821Z,93944.47
2019-02-27T22:24:15.065Z,93945.12
2019-02-27T22:26:48.679Z,93947.69
2019-02-27T22:29:22.220Z,93940.12
2019-02-27T22:31:55.881Z,93942.32
2019-02-27T22:34:30.050Z,93934.05
2019-02-27T22:37:02.981Z,93932.46
2019-02-27T22:39:36.040Z,93931.61
2019-02-27T22:42:09.081Z,93933.84
2019-02-27T22:44:42.001Z,93932.33
2019-02-27T22:47:21.156Z,93928.51
2019-02-27T22:49:51.639Z,93925.57
2019-02-27T22:52:25.310Z,93926.33
2019-02-27T22:54:58.411Z,93932.58
2019-02-27T22:57:31.882Z,93918.78
2019-02-27T23:00:05.100Z,93913.77
2019-02-27T23:02:38.849Z,93920.59
2019-02-27T23:05:13.182Z,93913.95
2019-02-27T23:07:48.121Z,93905.69
2019-02-27T23:10:22.061Z,93898.61
2019-02-27T23:12:55.941Z,93895.16
2019-02-27T23:15:29.642Z,93890.52
2019-02-27T23:18:05.974Z,93889.45
2019-02-27T23:20:39.160Z,93883.44
2019-02-27T23:23:12.157Z,93878.61
2019-02-27T23:25:46.481Z,93870.89
2019-02-27T23:28:20.061Z,93875.59
2019-02-27T23:30:53.010Z,93863.19
2019-02-27T23:33:25.960Z,93860.75
2019-02-27T23:35:59.921Z,93863.08
2019-02-27T23:38:34.755Z,93861.52
2019-02-27T23:41:09.401Z,93855.51
2019-02-27T23:43:42.812Z,93855.59
2019-02-27T23:46:18.487Z,93854.84
2019-02-27T23:48:52.206Z,93855.79
2019-02-27T23:51:26.120Z,93848.28
2019-02-27T23:54:01.332Z,93844.02
2019-02-27T23:56:35.439Z,93837.72
2019-02-27T23:59:09.001Z,93844.30
